| time (UTC) | temp F | wind direction | speed knots | gust knots | rain 1hr in | rain 24hr in | rain mn in | humidity % | barometer mb |
| 20260509130003 | 52 | 186 | 3.5 | 6.1 | 0.00 | 0.01 | 0.00 | 48 | 1011.8 |
| 20260509120003 | 39 | 0 | 0.0 | 0.0 | 0.00 | 0.01 | 0.00 | 86 | 1012.1 |
| 20260509110003 | 33 | 90 | 0.0 | 2.6 | 0.00 | 0.01 | 0.00 | 99 | 1012.0 |
| 20260509100005 | 30 | 90 | 1.7 | 2.6 | 0.00 | 0.01 | 0.00 | 99 | 1011.9 |
| 20260509090003 | 30 | 90 | 0.0 | 3.5 | 0.00 | 0.01 | 0.00 | 99 | 1011.1 |
| 20260509080003 | 31 | 90 | 1.7 | 2.6 | 0.00 | 0.01 | 0.00 | 99 | 1011.4 |
| 20260509070024 | 32 | 90 | 3.5 | 3.5 | 0.00 | 0.01 | 0.00 | 97 | 1011.4 |
| 20260509060024 | 32 | 90 | 2.6 | 3.5 | 0.00 | 0.01 | 0.00 | 96 | 1011.2 |
| 20260509050003 | 34 | 90 | 2.6 | 2.6 | 0.00 | 0.01 | 0.00 | 94 | 1011.0 |
| 20260509040004 | 35 | 90 | 3.5 | 3.5 | 0.00 | 0.01 | 0.00 | 92 | 1010.8 |
| 20260509030002 | 36 | 90 | 4.3 | 5.2 | 0.00 | 0.01 | 0.01 | 85 | 1010.3 |
| 20260509020003 | 37 | 90 | 5.2 | 5.2 | 0.00 | 0.01 | 0.01 | 84 | 1009.9 |
| 20260509010003 | 39 | 302 | 4.3 | 4.3 | 0.00 | 0.01 | 0.01 | 79 | 1009.3 |
| 20260509000003 | 42 | 310 | 0.0 | 2.6 | 0.00 | 0.01 | 0.01 | 63 | 1008.6 |
| 20260508230002 | 48 | 312 | 1.7 | 3.5 | 0.00 | 0.01 | 0.01 | 55 | 1008.3 |
| 20260508220003 | 51 | 360 | 3.5 | 4.3 | 0.00 | 0.01 | 0.01 | 50 | 1007.8 |
| 20260508210003 | 51 | 218 | 3.5 | 4.3 | 0.00 | 0.01 | 0.01 | 48 | 1007.6 |
| 20260508200003 | 51 | 327 | 3.5 | 6.1 | 0.00 | 0.01 | 0.01 | 50 | 1007.6 |
| 20260508190003 | 48 | 330 | 2.6 | 7.0 | 0.00 | 0.01 | 0.01 | 54 | 1007.6 |
| 20260508180003 | 49 | 200 | 4.3 | 5.2 | 0.00 | 0.01 | 0.01 | 53 | 1007.3 |
| 20260508170003 | 48 | 269 | 2.6 | 7.8 | 0.00 | 0.01 | 0.01 | 68 | 1007.3 |
| 20260508160004 | 41 | 256 | 3.5 | 3.5 | 0.01 | 0.01 | 0.01 | 91 | 1007.8 |
| 20260508150003 | 46 | 194 | 2.6 | 3.5 | 0.00 | 0.00 | 0.00 | 70 | 1007.5 |
| 20260508140003 | 44 | 180 | 2.6 | 3.5 | 0.00 | 0.00 | 0.00 | 73 | 1007.5 |